Time;durP1;ratioP1;P1;durP2;ratioP2;P2;SDS_P1;SDS_P2;PMS_P1;PMS_P2;Temp;Humidity;BMP_temperature;BMP_pressure;BME280_temperature;BME280_humidity;BME280_pressure;Samples;Min_cycle;Max_cycle;Signal;HPM_P1;HPM_P2
2022/07/27 00:01:40;;;;;;;2.95;2.70;;;17.90;99.90;;;;;;5074491;28;20210;-76
2022/07/27 00:04:07;;;;;;;3.35;3.05;;;17.80;99.90;;;;;;5074240;28;20228;-75
2022/07/27 00:06:34;;;;;;;6.20;3.10;;;17.70;99.90;;;;;;5074151;28;20227;-75
2022/07/27 00:09:00;;;;;;;4.63;2.80;;;17.80;99.90;;;;;;5074032;28;20243;-75
2022/07/27 00:11:29;;;;;;;5.70;2.97;;;17.80;99.90;;;;;;5074146;28;20197;-75
2022/07/27 00:13:55;;;;;;;3.95;2.83;;;17.70;99.90;;;;;;5074136;28;20542;-75
2022/07/27 00:16:22;;;;;;;6.78;2.90;;;17.70;99.90;;;;;;5073953;28;20201;-76
2022/07/27 00:18:49;;;;;;;3.85;3.15;;;17.70;99.90;;;;;;5073696;28;20193;-75
2022/07/27 00:21:15;;;;;;;6.15;3.13;;;17.70;99.90;;;;;;5073742;28;20193;-75
2022/07/27 00:23:42;;;;;;;4.88;2.80;;;17.80;99.90;;;;;;5073445;28;20225;-75
2022/07/27 00:26:09;;;;;;;4.60;3.03;;;17.80;99.90;;;;;;5073773;28;20250;-74
2022/07/27 00:28:37;;;;;;;3.38;3.08;;;17.60;99.90;;;;;;5073675;28;20262;-75
2022/07/27 00:31:03;;;;;;;5.78;3.50;;;17.50;99.90;;;;;;5073489;28;20197;-75
2022/07/27 00:33:30;;;;;;;4.28;3.00;;;17.30;99.90;;;;;;5073450;28;20255;-76
2022/07/27 00:35:57;;;;;;;5.45;3.45;;;17.40;99.90;;;;;;5073166;28;20207;-75
2022/07/27 00:38:24;;;;;;;4.38;3.33;;;17.50;99.90;;;;;;5073301;28;20197;-76
2022/07/27 00:40:51;;;;;;;5.18;3.30;;;17.50;99.90;;;;;;5073224;28;20688;-76
2022/07/27 00:43:17;;;;;;;4.45;3.30;;;17.60;99.90;;;;;;5073288;28;20240;-76
2022/07/27 00:45:46;;;;;;;3.47;3.17;;;17.50;99.90;;;;;;5073527;28;20192;-76
2022/07/27 00:48:12;;;;;;;3.42;3.08;;;17.40;99.90;;;;;;5073146;28;20254;-77
2022/07/27 00:50:42;;;;;;;4.00;3.28;;;17.10;99.90;;;;;;5073057;28;20193;-76
2022/07/27 00:53:09;;;;;;;4.00;3.30;;;17.00;99.90;;;;;;5073446;28;20197;-76
2022/07/27 00:55:36;;;;;;;4.10;3.53;;;16.80;99.90;;;;;;5073197;28;20197;-76
2022/07/27 00:58:04;;;;;;;6.22;3.30;;;16.80;99.90;;;;;;5073111;28;20638;-76
2022/07/27 01:00:31;;;;;;;4.45;3.20;;;16.80;99.90;;;;;;5073190;28;20273;-76
2022/07/27 01:02:59;;;;;;;4.20;3.80;;;16.60;99.90;;;;;;5073030;28;20224;-76
2022/07/27 01:05:26;;;;;;;4.85;3.45;;;16.50;99.90;;;;;;5073394;28;20193;-77
2022/07/27 01:07:53;;;;;;;5.40;3.80;;;16.40;99.90;;;;;;5073344;28;20197;-76
2022/07/27 01:10:19;;;;;;;4.47;3.50;;;16.50;99.90;;;;;;5078589;28;20196;-76
2022/07/27 01:12:46;;;;;;;4.53;3.08;;;16.60;99.90;;;;;;5079764;28;20258;-76
2022/07/27 01:15:13;;;;;;;8.15;3.50;;;16.50;99.90;;;;;;5073103;28;20201;-76
2022/07/27 01:17:40;;;;;;;10.70;3.80;;;16.50;99.90;;;;;;5072591;28;20592;-76
2022/07/27 01:20:09;;;;;;;5.97;3.45;;;16.50;99.90;;;;;;5073249;28;20282;-77
2022/07/27 01:22:37;;;;;;;4.00;3.58;;;16.60;99.90;;;;;;5072996;28;20204;-76
2022/07/27 01:25:04;;;;;;;5.28;3.70;;;16.70;99.90;;;;;;5072846;28;20205;-76
2022/07/27 01:27:30;;;;;;;5.40;3.88;;;16.70;99.90;;;;;;5072733;28;20258;-76
2022/07/27 01:29:57;;;;;;;6.00;3.47;;;16.60;99.90;;;;;;5072697;28;20283;-77
2022/07/27 01:32:24;;;;;;;4.68;3.33;;;16.70;99.90;;;;;;5072747;28;20333;-76
2022/07/27 01:34:50;;;;;;;6.32;3.70;;;16.70;99.90;;;;;;5073017;28;20208;-76
2022/07/27 01:37:17;;;;;;;4.05;3.65;;;16.60;99.90;;;;;;5072774;28;20603;-76
2022/07/27 01:39:45;;;;;;;5.70;3.72;;;16.60;99.90;;;;;;5072718;28;20278;-76
2022/07/27 01:42:12;;;;;;;4.85;3.60;;;16.40;99.90;;;;;;5072820;28;20254;-76
2022/07/27 01:44:38;;;;;;;6.07;3.83;;;16.30;99.90;;;;;;5072531;28;20251;-76
2022/07/27 01:47:06;;;;;;;6.63;3.70;;;16.20;99.90;;;;;;5072640;28;20240;-76
2022/07/27 01:49:32;;;;;;;4.10;3.63;;;16.20;99.90;;;;;;5074885;28;20296;-76
2022/07/27 01:51:59;;;;;;;3.60;3.23;;;16.20;99.90;;;;;;5076466;28;20660;-76
2022/07/27 01:54:26;;;;;;;4.63;3.97;;;16.20;99.90;;;;;;5076691;28;20200;-76
2022/07/27 01:56:54;;;;;;;4.13;3.73;;;16.10;99.90;;;;;;5076530;28;20254;-76
2022/07/27 01:59:20;;;;;;;6.23;3.83;;;16.00;99.90;;;;;;5076373;28;20205;-76
2022/07/27 02:01:47;;;;;;;5.53;4.30;;;15.80;99.90;;;;;;5076624;28;20279;-76
2022/07/27 02:04:13;;;;;;;4.70;4.30;;;15.80;99.90;;;;;;5076448;28;20224;-76
2022/07/27 02:06:40;;;;;;;6.33;3.97;;;15.80;99.90;;;;;;5076449;28;20197;-76
2022/07/27 02:09:07;;;;;;;4.40;4.00;;;15.70;99.90;;;;;;5076337;28;20261;-76
2022/07/27 02:14:19;;;;;;;5.60;4.30;;;15.50;99.90;;;;;;5076488;28;20250;-76
2022/07/27 02:16:46;;;;;;;5.60;4.10;;;15.60;99.90;;;;;;5076443;28;20239;-76
2022/07/27 02:19:13;;;;;;;5.63;4.00;;;15.50;99.90;;;;;;5076190;28;20196;-76
2022/07/27 02:21:39;;;;;;;5.37;4.60;;;15.60;99.90;;;;;;5075927;28;20621;-76
2022/07/27 02:24:06;;;;;;;8.73;4.90;;;15.50;99.90;;;;;;5075940;28;20275;-76
2022/07/27 02:26:33;;;;;;;7.53;5.10;;;15.40;99.90;;;;;;5075896;28;20204;-76
2022/07/27 02:29:00;;;;;;;6.43;4.70;;;15.30;99.90;;;;;;5076071;28;20246;-76
2022/07/27 02:31:28;;;;;;;5.43;4.87;;;15.30;99.90;;;;;;5075965;28;20255;-76
2022/07/27 02:33:54;;;;;;;6.87;4.90;;;15.40;99.90;;;;;;5075799;28;20200;-76
2022/07/27 02:36:21;;;;;;;7.67;4.80;;;15.50;99.90;;;;;;5075823;28;20197;-76
2022/07/27 02:38:48;;;;;;;5.30;4.80;;;15.30;99.90;;;;;;5075418;28;20204;-76
2022/07/27 02:41:15;;;;;;;9.10;5.50;;;15.10;99.90;;;;;;5075622;28;20649;-76
2022/07/27 02:43:41;;;;;;;7.10;5.30;;;15.10;99.90;;;;;;5075441;28;20576;-76
2022/07/27 02:46:08;;;;;;;9.33;5.67;;;15.10;99.90;;;;;;5075695;28;20610;-76
2022/07/27 02:48:36;;;;;;;8.97;5.63;;;15.00;99.90;;;;;;5075673;28;20197;-76
2022/07/27 02:51:03;;;;;;;6.43;5.80;;;14.90;99.90;;;;;;5075828;28;20201;-76
2022/07/27 02:53:30;;;;;;;6.93;5.67;;;14.80;99.90;;;;;;5075450;28;20266;-76
2022/07/27 02:55:57;;;;;;;6.40;5.80;;;14.80;99.90;;;;;;5075721;28;20227;-76
2022/07/27 02:58:24;;;;;;;9.00;6.00;;;14.80;99.90;;;;;;5075598;28;20248;-76
2022/07/27 03:00:51;;;;;;;7.20;5.57;;;14.80;99.90;;;;;;5074802;28;20733;-76
2022/07/27 03:03:18;;;;;;;8.57;6.00;;;14.90;99.90;;;;;;5075140;28;20864;-76
2022/07/27 03:05:47;;;;;;;6.63;6.00;;;14.90;99.90;;;;;;5075524;28;20208;-76
2022/07/27 03:08:14;;;;;;;7.53;5.73;;;14.90;99.90;;;;;;5075058;28;20248;-76
2022/07/27 03:10:40;;;;;;;7.63;6.10;;;14.80;99.90;;;;;;5075349;28;20255;-76
2022/07/27 03:13:07;;;;;;;8.97;6.30;;;14.70;99.90;;;;;;5075305;28;20267;-76
2022/07/27 03:15:34;;;;;;;8.83;5.90;;;14.70;99.90;;;;;;5075097;28;20204;-76
2022/07/27 03:18:01;;;;;;;7.37;6.43;;;14.60;99.90;;;;;;5075073;28;20197;-77
2022/07/27 03:20:28;;;;;;;6.63;6.03;;;14.60;99.90;;;;;;5075125;28;20201;-76
2022/07/27 03:22:56;;;;;;;8.70;5.93;;;14.60;99.90;;;;;;5074809;28;20193;-77
2022/07/27 03:25:23;;;;;;;10.07;6.57;;;14.70;99.90;;;;;;5075045;28;20224;-76
2022/07/27 03:27:49;;;;;;;8.93;6.47;;;14.70;99.90;;;;;;5075467;28;20207;-76
2022/07/27 03:30:16;;;;;;;7.30;6.00;;;14.70;99.90;;;;;;5074940;28;20197;-76
2022/07/27 03:32:43;;;;;;;7.73;6.13;;;14.50;99.90;;;;;;5074817;28;20255;-74
2022/07/27 03:35:10;;;;;;;7.43;6.00;;;14.40;99.90;;;;;;5074601;28;20262;-75
2022/07/27 03:37:36;;;;;;;7.47;6.67;;;14.40;99.90;;;;;;5075101;28;20292;-75
2022/07/27 03:40:06;;;;;;;7.10;6.40;;;14.30;99.90;;;;;;5075424;28;20232;-75
2022/07/27 03:42:32;;;;;;;6.83;6.23;;;14.20;99.90;;;;;;5075604;28;20193;-75
2022/07/27 03:44:59;;;;;;;8.57;7.47;;;14.10;99.90;;;;;;5075721;28;20634;-76
2022/07/27 03:47:25;;;;;;;8.17;6.73;;;14.20;99.90;;;;;;5075789;28;20201;-75
2022/07/27 03:49:52;;;;;;;7.73;7.03;;;14.30;99.90;;;;;;5076406;28;20197;-75
2022/07/27 03:52:19;;;;;;;11.90;7.77;;;14.40;99.90;;;;;;5076181;28;20204;-77
2022/07/27 03:54:46;;;;;;;8.37;6.77;;;14.50;99.90;;;;;;5075592;28;20279;-75
2022/07/27 03:57:14;;;;;;;7.97;7.27;;;14.50;99.90;;;;;;5079418;28;20197;-76
2022/07/27 03:59:41;;;;;;;8.20;7.33;;;14.70;99.90;;;;;;5088884;28;20193;-75
2022/07/27 04:02:07;;;;;;;14.97;7.13;;;14.70;99.90;;;;;;5095153;28;20230;-74
2022/07/27 04:04:34;;;;;;;7.77;7.00;;;14.70;99.90;;;;;;5092218;28;20274;-75
2022/07/27 04:07:01;;;;;;;7.63;6.87;;;14.70;99.90;;;;;;5095171;28;20274;-74
2022/07/27 04:09:27;;;;;;;7.17;6.47;;;14.60;99.90;;;;;;5092790;28;20229;-75
2022/07/27 04:11:54;;;;;;;9.13;6.83;;;14.60;99.90;;;;;;5073859;28;20231;-77
2022/07/27 04:14:22;;;;;;;10.07;7.27;;;14.50;99.90;;;;;;5074105;28;20218;-75
2022/07/27 04:16:50;;;;;;;9.03;7.80;;;14.40;99.90;;;;;;5073973;28;20193;-75
2022/07/27 04:19:16;;;;;;;11.40;8.30;;;14.40;99.90;;;;;;5074022;28;20197;-75
2022/07/27 04:21:43;;;;;;;8.87;7.87;;;14.40;99.90;;;;;;5073927;28;20255;-75
2022/07/27 04:24:10;;;;;;;11.17;8.37;;;14.40;99.90;;;;;;5073724;28;20274;-75
2022/07/27 04:26:36;;;;;;;12.50;7.87;;;14.40;99.90;;;;;;5073549;28;20612;-75
2022/07/27 04:29:04;;;;;;;10.70;7.50;;;14.40;99.90;;;;;;5073730;28;20201;-77
2022/07/27 04:31:32;;;;;;;10.43;7.93;;;14.50;99.90;;;;;;5073369;28;20645;-75
2022/07/27 04:33:58;;;;;;;8.50;7.70;;;14.70;99.90;;;;;;5073757;28;20205;-75
2022/07/27 04:36:26;;;;;;;8.23;7.43;;;14.80;99.90;;;;;;5073717;28;20606;-75
2022/07/27 04:38:53;;;;;;;9.57;7.67;;;14.90;99.90;;;;;;5073441;28;20251;-75
2022/07/27 04:41:19;;;;;;;8.97;7.70;;;15.00;99.90;;;;;;5073756;28;20231;-75
2022/07/27 04:43:46;;;;;;;12.23;7.73;;;15.00;99.90;;;;;;5073472;28;20196;-76
2022/07/27 04:46:14;;;;;;;8.57;7.53;;;15.00;99.90;;;;;;5073389;28;20255;-75
2022/07/27 04:48:42;;;;;;;7.87;7.00;;;15.10;99.90;;;;;;5073242;28;20201;-75
2022/07/27 04:51:13;;;;;;;8.00;7.20;;;15.20;99.90;;;;;;5073406;28;20255;-75
2022/07/27 04:53:40;;;;;;;9.37;6.90;;;15.20;99.90;;;;;;5073350;28;20222;-75
2022/07/27 04:56:07;;;;;;;8.40;7.60;;;15.40;99.90;;;;;;5073137;28;20227;-74
2022/07/27 04:58:33;;;;;;;7.23;6.60;;;15.50;99.90;;;;;;5072965;28;20201;-75
2022/07/27 05:01:00;;;;;;;12.43;7.17;;;15.60;99.90;;;;;;5073292;28;20258;-74
2022/07/27 05:03:27;;;;;;;9.37;6.50;;;15.80;99.90;;;;;;5073221;28;20193;-76
2022/07/27 05:05:55;;;;;;;7.53;6.73;;;16.10;99.90;;;;;;5073114;28;20278;-75
2022/07/27 05:08:21;;;;;;;8.63;6.00;;;16.20;99.90;;;;;;5073088;28;20197;-74
2022/07/27 05:10:48;;;;;;;7.73;6.53;;;16.50;99.90;;;;;;5073141;28;20288;-75
2022/07/27 05:13:15;;;;;;;7.10;6.40;;;16.60;99.90;;;;;;5072842;28;20193;-75
2022/07/27 05:15:42;;;;;;;7.15;5.95;;;16.70;99.90;;;;;;5073107;28;20254;-74
2022/07/27 05:18:09;;;;;;;6.95;6.20;;;16.70;99.90;;;;;;5072991;28;20197;-76
2022/07/27 05:20:35;;;;;;;7.72;6.40;;;16.80;99.90;;;;;;5073115;28;20197;-75
2022/07/27 05:23:03;;;;;;;6.65;6.03;;;17.00;99.90;;;;;;5072791;28;20725;-75
2022/07/27 05:25:30;;;;;;;6.55;5.90;;;17.10;99.90;;;;;;5072598;28;20749;-75
2022/07/27 05:27:56;;;;;;;6.78;5.57;;;17.20;99.90;;;;;;5072845;28;20209;-74
2022/07/27 05:30:24;;;;;;;5.85;5.32;;;17.30;99.90;;;;;;5072665;28;20196;-73
2022/07/27 05:32:51;;;;;;;5.70;5.25;;;17.30;99.90;;;;;;5072830;28;20200;-74
2022/07/27 05:35:17;;;;;;;5.95;5.40;;;17.40;99.90;;;;;;5072596;28;20653;-75
2022/07/27 05:37:45;;;;;;;7.07;5.75;;;17.50;99.90;;;;;;5072712;28;20235;-74
2022/07/27 05:40:13;;;;;;;6.68;5.30;;;17.60;99.90;;;;;;5072696;28;20279;-74
2022/07/27 05:42:42;;;;;;;5.93;5.43;;;17.70;99.90;;;;;;5072482;28;20645;-74
2022/07/27 05:45:10;;;;;;;7.00;5.63;;;17.80;99.90;;;;;;5072707;28;20317;-75
2022/07/27 05:47:37;;;;;;;8.02;5.07;;;18.00;99.90;;;;;;5072319;28;20729;-75
2022/07/27 05:50:04;;;;;;;6.18;4.80;;;18.10;99.90;;;;;;5072499;28;20199;-75
2022/07/27 05:52:31;;;;;;;5.53;5.00;;;18.30;99.90;;;;;;5071958;28;20211;-75
2022/07/27 05:54:58;;;;;;;8.57;4.60;;;18.20;99.90;;;;;;5071998;28;20204;-75
2022/07/27 05:57:26;;;;;;;5.22;4.72;;;18.30;99.90;;;;;;5072557;28;20201;-75
2022/07/27 05:59:53;;;;;;;5.25;4.72;;;18.40;99.90;;;;;;5072082;28;20304;-76
2022/07/27 06:02:20;;;;;;;6.28;5.03;;;18.50;99.90;;;;;;5072158;28;20246;-77
2022/07/27 06:04:47;;;;;;;5.03;4.63;;;18.30;99.90;;;;;;5072301;28;20216;-75
2022/07/27 06:09:59;;;;;;;5.07;4.50;;;18.40;99.90;;;;;;5072532;28;20670;-77
2022/07/27 06:12:27;;;;;;;4.97;4.47;;;18.80;99.90;;;;;;5072910;28;20246;-76
2022/07/27 06:14:54;;;;;;;5.28;4.30;;;19.00;99.90;;;;;;5072774;28;20200;-77
2022/07/27 06:17:20;;;;;;;7.68;4.25;;;19.10;99.90;;;;;;5072526;28;20718;-76
2022/07/27 06:19:47;;;;;;;7.40;4.57;;;19.30;99.90;;;;;;5072313;28;20197;-77
2022/07/27 06:22:14;;;;;;;6.15;4.50;;;19.30;99.90;;;;;;5072698;28;20196;-75
2022/07/27 06:24:40;;;;;;;5.68;4.60;;;19.50;99.90;;;;;;5072190;28;20228;-76
2022/07/27 06:27:07;;;;;;;6.07;4.30;;;19.60;99.90;;;;;;5072057;28;20529;-76
2022/07/27 06:29:35;;;;;;;4.97;4.22;;;19.60;99.90;;;;;;5075801;28;20254;-76
2022/07/27 06:32:01;;;;;;;4.50;4.15;;;19.50;99.90;;;;;;5080091;28;20193;-77
2022/07/27 06:34:28;;;;;;;6.22;4.30;;;19.60;99.90;;;;;;5080583;28;20245;-77
2022/07/27 06:36:57;;;;;;;4.95;4.55;;;19.60;99.90;;;;;;5084509;28;20188;-77
2022/07/27 06:39:23;;;;;;;6.70;4.07;;;19.70;99.90;;;;;;5085205;28;20228;-77
2022/07/27 06:41:50;;;;;;;5.00;4.47;;;19.70;99.90;;;;;;5083867;28;20189;-77
2022/07/27 06:44:16;;;;;;;5.13;4.03;;;20.00;99.90;;;;;;5084357;28;20258;-75
2022/07/27 06:46:44;;;;;;;4.85;4.32;;;20.20;99.90;;;;;;5085246;28;20216;-75
2022/07/27 06:49:11;;;;;;;4.88;4.13;;;20.40;99.90;;;;;;5086332;28;20522;-75
2022/07/27 06:51:38;;;;;;;4.53;4.13;;;20.50;99.90;;;;;;5083655;28;20615;-75
2022/07/27 06:54:05;;;;;;;5.47;4.00;;;20.60;99.90;;;;;;5085533;28;20607;-75
2022/07/27 06:56:32;;;;;;;4.10;3.70;;;20.70;99.90;;;;;;5084175;28;20205;-75
2022/07/27 06:58:59;;;;;;;4.53;4.07;;;20.80;99.90;;;;;;5085997;28;20556;-75
2022/07/27 07:01:26;;;;;;;5.30;4.25;;;20.80;99.90;;;;;;5087071;28;20193;-74
2022/07/27 07:03:56;;;;;;;4.53;3.80;;;21.00;99.90;;;;;;5087270;28;20197;-75
2022/07/27 07:06:23;;;;;;;9.18;4.18;;;21.20;99.90;;;;;;5085016;28;20220;-74
2022/07/27 07:08:50;;;;;;;4.28;3.88;;;21.20;99.90;;;;;;5084349;28;20200;-76
2022/07/27 07:11:16;;;;;;;5.63;4.03;;;21.50;99.90;;;;;;5085966;28;20664;-74
2022/07/27 07:13:43;;;;;;;5.10;4.00;;;21.80;99.90;;;;;;5083618;28;20717;-75
2022/07/27 07:16:09;;;;;;;5.25;3.70;;;21.50;99.90;;;;;;5081336;28;20200;-76
2022/07/27 07:18:36;;;;;;;4.63;4.13;;;21.30;99.90;;;;;;5083015;28;20189;-75
2022/07/27 07:21:04;;;;;;;4.20;3.90;;;21.00;99.90;;;;;;5083626;28;20192;-76
2022/07/27 07:23:31;;;;;;;4.30;3.88;;;21.10;99.90;;;;;;5084559;28;20196;-75
2022/07/27 07:25:58;;;;;;;4.47;4.15;;;21.10;99.90;;;;;;5082583;28;20213;-77
2022/07/27 07:28:24;;;;;;;8.68;4.22;;;21.20;99.90;;;;;;5083257;28;20188;-76
2022/07/27 07:30:51;;;;;;;3.90;3.60;;;20.80;99.90;;;;;;5084664;28;20192;-75
2022/07/27 07:33:17;;;;;;;4.22;3.83;;;21.00;99.90;;;;;;5082709;28;20189;-74
2022/07/27 07:35:44;;;;;;;4.07;3.78;;;21.40;99.90;;;;;;5083337;28;20648;-74
2022/07/27 07:38:12;;;;;;;4.38;3.97;;;21.70;99.90;;;;;;5085079;28;20196;-74
2022/07/27 07:40:39;;;;;;;4.43;4.03;;;22.00;99.90;;;;;;5086806;28;20277;-78
2022/07/27 07:43:05;;;;;;;4.10;3.40;;;22.40;99.90;;;;;;5094318;28;20318;-77
2022/07/27 07:45:36;;;;;;;4.20;3.80;;;22.70;99.90;;;;;;5094327;28;20277;-77
2022/07/27 07:48:04;;;;;;;4.38;3.60;;;22.90;99.90;;;;;;5093701;28;20227;-77
2022/07/27 07:50:31;;;;;;;5.50;3.28;;;23.20;99.90;;;;;;5094442;28;20197;-77
2022/07/27 07:52:58;;;;;;;7.43;4.03;;;23.40;99.90;;;;;;5094648;28;20193;-78
2022/07/27 07:55:28;;;;;;;5.07;3.88;;;23.30;99.90;;;;;;5094414;28;20201;-78
2022/07/27 07:57:55;;;;;;;6.20;3.70;;;23.50;99.90;;;;;;5094193;28;20196;-77
2022/07/27 08:00:22;;;;;;;4.40;4.00;;;23.70;99.90;;;;;;5094324;28;20200;-77
2022/07/27 08:02:51;;;;;;;4.65;3.65;;;23.10;99.90;;;;;;5094235;28;20196;-78
2022/07/27 08:05:18;;;;;;;4.32;3.90;;;22.80;99.90;;;;;;5094106;28;20266;-78
2022/07/27 08:07:45;;;;;;;4.15;3.78;;;23.30;99.90;;;;;;5094046;28;20200;-78
2022/07/27 08:10:14;;;;;;;5.78;3.63;;;23.60;99.90;;;;;;5093876;28;20253;-78
2022/07/27 08:12:45;;;;;;;5.90;3.70;;;23.70;99.90;;;;;;5094224;28;20288;-78
2022/07/27 08:15:13;;;;;;;3.85;3.38;;;23.90;99.90;;;;;;5094160;28;20210;-78
2022/07/27 08:17:39;;;;;;;5.18;3.63;;;24.30;99.90;;;;;;5094329;28;20196;-78
2022/07/27 08:20:07;;;;;;;7.72;3.95;;;25.00;99.90;;;;;;5093986;28;20199;-78
2022/07/27 08:22:34;;;;;;;4.72;3.65;;;24.70;99.90;;;;;;5093836;28;20261;-78
2022/07/27 08:25:01;;;;;;;4.00;3.60;;;24.50;99.90;;;;;;5093859;28;20193;-78
2022/07/27 08:27:28;;;;;;;3.88;3.58;;;24.10;99.90;;;;;;5093932;28;20200;-76
2022/07/27 08:29:56;;;;;;;5.00;3.75;;;23.90;99.90;;;;;;5093955;28;20200;-77
2022/07/27 08:32:23;;;;;;;4.78;3.53;;;24.00;99.90;;;;;;5093867;28;20196;-77
2022/07/27 08:34:50;;;;;;;4.45;3.30;;;24.30;99.90;;;;;;5093521;28;20647;-77
2022/07/27 08:37:17;;;;;;;7.18;3.70;;;24.60;99.90;;;;;;5093698;28;20200;-77
2022/07/27 08:39:44;;;;;;;7.47;3.50;;;24.90;99.90;;;;;;5093676;28;20232;-77
2022/07/27 08:42:11;;;;;;;4.13;3.65;;;25.10;99.90;;;;;;5093596;28;20196;-77
2022/07/27 08:44:40;;;;;;;5.82;3.45;;;24.90;99.90;;;;;;5093460;28;20651;-77
2022/07/27 08:47:09;;;;;;;3.83;3.40;;;24.70;99.90;;;;;;5093601;28;20228;-78
2022/07/27 08:49:38;;;;;;;3.85;3.40;;;25.10;99.90;;;;;;5093289;28;20246;-77
2022/07/27 08:52:05;;;;;;;3.63;3.33;;;24.90;99.90;;;;;;5093589;28;20200;-78
2022/07/27 08:54:32;;;;;;;5.40;3.28;;;25.10;99.90;;;;;;5093316;28;20196;-77
2022/07/27 08:56:58;;;;;;;7.00;3.30;;;25.70;99.90;;;;;;5092992;28;20207;-78
2022/07/27 08:59:25;;;;;;;4.50;4.07;;;26.00;99.90;;;;;;5093102;28;20265;-78
2022/07/27 09:01:52;;;;;;;5.05;3.50;;;25.70;99.90;;;;;;5093288;28;20246;-78
2022/07/27 09:04:20;;;;;;;7.05;3.70;;;25.40;99.20;;;;;;5093203;28;20196;-77
2022/07/27 09:06:48;;;;;;;5.75;3.42;;;25.50;98.70;;;;;;5093192;28;20224;-78
2022/07/27 09:09:18;;;;;;;3.13;2.83;;;25.20;99.60;;;;;;5093102;28;20200;-78
2022/07/27 09:12:03;;;;;;;3.63;3.33;;;26.10;99.00;;;;;;5093156;28;20192;-78
2022/07/27 09:14:32;;;;;;;4.38;3.47;;;25.90;97.00;;;;;;5093099;28;20242;-78
2022/07/27 09:16:58;;;;;;;4.88;3.28;;;25.80;97.00;;;;;;5092692;28;20197;-78
2022/07/27 09:19:26;;;;;;;5.70;3.30;;;25.70;97.20;;;;;;5093006;28;20193;-77
2022/07/27 09:21:53;;;;;;;6.45;3.70;;;26.20;95.30;;;;;;5092981;28;20257;-77
2022/07/27 09:24:20;;;;;;;4.82;2.97;;;26.10;95.00;;;;;;5093000;28;20200;-79
2022/07/27 09:26:48;;;;;;;5.97;3.70;;;26.10;94.70;;;;;;5092889;28;20216;-77
2022/07/27 09:29:16;;;;;;;5.07;3.50;;;25.10;97.00;;;;;;5093015;28;20200;-77
2022/07/27 09:31:46;;;;;;;4.25;3.45;;;24.30;99.00;;;;;;5093268;28;20196;-77
2022/07/27 09:34:25;;;;;;;6.30;3.33;;;24.00;99.90;;;;;;5093132;28;20502;-78
2022/07/27 09:36:55;;;;;;;3.67;3.38;;;24.20;99.90;;;;;;5093279;28;20606;-77
2022/07/27 09:39:23;;;;;;;7.57;3.60;;;24.20;99.90;;;;;;5093597;28;20447;-77
2022/07/27 09:41:53;;;;;;;7.25;3.38;;;24.90;99.00;;;;;;5094479;28;20533;-79
2022/07/27 09:44:33;;;;;;;7.40;3.38;;;25.60;97.90;;;;;;5093745;28;20200;-78
2022/07/27 09:47:00;;;;;;;3.50;3.20;;;25.70;96.30;;;;;;5093832;28;20224;-79
2022/07/27 09:49:29;;;;;;;5.72;3.80;;;26.10;96.20;;;;;;5095613;28;20261;-78
2022/07/27 09:51:58;;;;;;;4.65;3.53;;;26.30;95.10;;;;;;5105280;28;20200;-79
2022/07/27 09:54:25;;;;;;;3.50;3.10;;;26.40;93.50;;;;;;5105407;28;20200;-77
2022/07/27 09:57:00;;;;;;;3.28;2.97;;;26.00;93.20;;;;;;5111982;28;20192;-77
2022/07/27 09:59:28;;;;;;;4.45;3.22;;;25.50;94.70;;;;;;5113432;28;20192;-77
2022/07/27 10:01:56;;;;;;;4.25;3.33;;;25.60;94.40;;;;;;5111434;28;20215;-78
2022/07/27 10:04:23;;;;;;;5.22;3.08;;;25.00;95.80;;;;;;5100241;28;20197;-79
2022/07/27 10:06:50;;;;;;;3.95;3.55;;;24.70;96.80;;;;;;5097384;28;20273;-79
2022/07/27 10:09:19;;;;;;;4.43;3.50;;;24.70;97.20;;;;;;5096962;28;20204;-77
2022/07/27 10:11:48;;;;;;;3.53;3.25;;;25.00;96.50;;;;;;5096802;28;20291;-77
2022/07/27 10:14:14;;;;;;;4.38;2.95;;;24.90;96.30;;;;;;5096664;28;20234;-77
2022/07/27 10:16:41;;;;;;;8.07;3.42;;;24.90;95.90;;;;;;5096509;28;20203;-77
2022/07/27 10:19:13;;;;;;;3.55;3.17;;;24.90;95.90;;;;;;5096417;28;20590;-77
2022/07/27 10:21:44;;;;;;;3.85;3.35;;;24.90;95.50;;;;;;5096429;28;20196;-78
2022/07/27 10:24:12;;;;;;;5.00;3.00;;;25.00;94.50;;;;;;5096479;28;20196;-78
2022/07/27 10:26:41;;;;;;;3.80;2.97;;;24.70;95.00;;;;;;5096313;28;20224;-79
2022/07/27 10:29:17;;;;;;;5.85;3.63;;;24.70;95.10;;;;;;5096299;28;20204;-78
2022/07/27 10:31:56;;;;;;;5.40;3.58;;;24.20;96.30;;;;;;5096177;28;20196;-77
2022/07/27 10:34:34;;;;;;;3.88;3.20;;;24.60;96.30;;;;;;5096219;28;20671;-78
2022/07/27 10:37:09;;;;;;;3.60;2.75;;;24.70;96.40;;;;;;5096214;28;20246;-79
2022/07/27 10:39:38;;;;;;;7.25;3.30;;;24.50;95.00;;;;;;5095794;28;20323;-77
2022/07/27 10:42:27;;;;;;;3.35;3.05;;;24.50;95.20;;;;;;5095998;28;20602;-77
2022/07/27 10:45:07;;;;;;;3.45;3.08;;;24.20;94.30;;;;;;5096053;28;20665;-78
2022/07/27 10:47:37;;;;;;;3.63;3.30;;;24.10;95.50;;;;;;5096213;28;20281;-78
2022/07/27 10:50:29;;;;;;;5.40;3.42;;;24.00;96.20;;;;;;5095847;28;20204;-78
2022/07/27 10:52:58;;;;;;;4.55;3.10;;;23.90;97.60;;;;;;5096151;28;20245;-77
2022/07/27 10:55:47;;;;;;;3.88;3.15;;;23.70;99.10;;;;;;5095959;28;20200;-77
2022/07/27 10:58:44;;;;;;;5.03;3.17;;;24.00;99.90;;;;;;5095813;28;20254;-78
2022/07/27 11:01:12;;;;;;;5.72;3.17;;;23.80;99.90;;;;;;5095353;28;20200;-78
2022/07/27 11:03:40;;;;;;;4.85;2.92;;;24.20;99.50;;;;;;5095399;28;20287;-77
2022/07/27 11:06:10;;;;;;;3.53;3.00;;;25.00;99.20;;;;;;5095125;28;20706;-77
2022/07/27 11:08:38;;;;;;;2.85;2.65;;;25.70;96.20;;;;;;5095458;28;20228;-78
2022/07/27 11:11:06;;;;;;;3.00;2.70;;;28.20;92.80;;;;;;5095368;28;20230;-78
2022/07/27 11:13:34;;;;;;;3.35;2.88;;;28.30;85.90;;;;;;5095047;28;20235;-78
2022/07/27 11:16:04;;;;;;;2.75;2.55;;;26.80;89.90;;;;;;5095337;28;20559;-78
2022/07/27 11:18:33;;;;;;;4.72;2.60;;;26.30;91.50;;;;;;5095119;28;20628;-77
2022/07/27 11:21:16;;;;;;;6.68;2.90;;;25.00;91.70;;;;;;5094978;28;20192;-77
2022/07/27 11:23:44;;;;;;;3.80;2.70;;;25.80;91.30;;;;;;5095058;28;20196;-78
2022/07/27 11:26:11;;;;;;;2.60;2.40;;;27.70;87.30;;;;;;5095180;28;20224;-78
2022/07/27 11:28:38;;;;;;;3.95;2.10;;;29.80;79.40;;;;;;5095181;28;20201;-78
2022/07/27 11:31:08;;;;;;;4.00;2.00;;;31.70;67.80;;;;;;5095098;28;20203;-78
2022/07/27 11:33:35;;;;;;;3.42;2.10;;;31.10;60.10;;;;;;5094893;28;20278;-78
2022/07/27 11:36:04;;;;;;;2.42;2.00;;;30.60;58.20;;;;;;5094789;28;20241;-78
2022/07/27 11:38:44;;;;;;;2.72;2.10;;;31.20;57.60;;;;;;5094868;28;20268;-78
2022/07/27 11:41:20;;;;;;;5.82;2.30;;;32.60;53.10;;;;;;5094812;28;20651;-78
2022/07/27 11:43:47;;;;;;;4.00;2.55;;;31.80;51.00;;;;;;5094802;28;20199;-78
2022/07/27 11:46:21;;;;;;;3.13;2.53;;;30.00;51.30;;;;;;5094668;28;20249;-78
2022/07/27 11:48:56;;;;;;;2.72;2.20;;;28.90;53.80;;;;;;5094461;28;20191;-78
2022/07/27 11:51:24;;;;;;;2.67;2.30;;;29.20;53.80;;;;;;5094863;28;20200;-78
2022/07/27 11:53:56;;;;;;;2.13;2.03;;;30.40;52.00;;;;;;5094545;28;20668;-78
2022/07/27 11:56:24;;;;;;;3.15;2.20;;;30.00;50.90;;;;;;5094681;28;20204;-78
2022/07/27 11:59:02;;;;;;;3.22;2.20;;;29.10;50.90;;;;;;5094426;28;20265;-78
2022/07/27 12:01:33;;;;;;;4.47;2.20;;;29.70;50.20;;;;;;5094735;28;20196;-79
2022/07/27 12:04:22;;;;;;;1.92;1.83;;;30.60;49.20;;;;;;5094918;28;20200;-78
2022/07/27 12:06:57;;;;;;;3.13;2.00;;;32.30;46.00;;;;;;5088653;28;20220;-78
2022/07/27 12:09:24;;;;;;;6.00;2.00;;;34.20;42.60;;;;;;5094365;28;20249;-78
2022/07/27 12:12:00;;;;;;;3.50;2.10;;;34.70;39.40;;;;;;5094219;28;20352;-78
2022/07/27 12:14:35;;;;;;;3.70;1.80;;;34.50;38.50;;;;;;5094853;28;20206;-78
2022/07/27 12:17:11;;;;;;;5.63;1.77;;;35.20;37.00;;;;;;5094495;28;20245;-77
2022/07/27 12:19:38;;;;;;;2.08;1.63;;;36.70;34.70;;;;;;5094045;28;20244;-78
2022/07/27 12:22:06;;;;;;;2.90;1.70;;;34.00;29.60;;;;;;5093964;28;20203;-78
2022/07/27 12:24:35;;;;;;;2.63;1.90;;;32.00;31.70;;;;;;5093912;28;20199;-78
2022/07/27 12:27:04;;;;;;;2.53;1.85;;;31.20;35.00;;;;;;5094118;28;20215;-79
2022/07/27 12:29:31;;;;;;;3.22;2.10;;;30.60;36.60;;;;;;5094034;28;20196;-78
2022/07/27 12:32:02;;;;;;;3.00;2.10;;;30.30;37.50;;;;;;5094019;28;20586;-78
2022/07/27 12:34:34;;;;;;;5.70;2.05;;;29.20;39.20;;;;;;5093660;28;20199;-78
2022/07/27 12:37:01;;;;;;;3.00;2.05;;;30.20;38.80;;;;;;5093960;28;20208;-78
2022/07/27 12:39:29;;;;;;;6.50;2.28;;;29.30;39.70;;;;;;5094010;28;20610;-78
2022/07/27 12:42:03;;;;;;;3.47;2.15;;;29.80;40.40;;;;;;5094009;28;20201;-78
2022/07/27 12:44:32;;;;;;;3.05;2.00;;;30.00;39.50;;;;;;5093807;28;20600;-78
2022/07/27 12:47:01;;;;;;;2.38;2.10;;;30.40;38.80;;;;;;5093636;28;20220;-76
2022/07/27 12:49:33;;;;;;;4.03;2.25;;;30.10;39.20;;;;;;5097170;28;20196;-77
2022/07/27 12:52:06;;;;;;;3.92;2.30;;;29.80;39.60;;;;;;5102104;28;20200;-77
2022/07/27 12:54:33;;;;;;;3.67;2.40;;;29.80;39.40;;;;;;5108993;28;20200;-77
2022/07/27 12:57:00;;;;;;;2.53;2.10;;;28.90;39.10;;;;;;5109707;28;20199;-78